»·PEaware :: UAL180 KLAX-KFAT

UAL180 :: KLAX-KFAT

FLIGHT INFORMATION

Flight Status: Arrived
Operator:
United Airlines
More flights by this operator :: More flights under this callsign
Pilot: Etienne B. (28927)
Aircraft: AIRBUS A320
(A320)
More flights by this aircraft type
Origin: KLAX Los Angeles Intl
United States
Destination: KFAT Fresno Yosemite Intl
United States
More flights between these airports :: More routes between these airports
Route: +LADYJ4 CSTRO TTE ALTTA9
File this flight plan on PilotEdge
Remarks: RMK / SIMBRIEF
Altitude:
(Current/Filed)
26,000ft
Speed:
(Current/Filed)
408kts
Departed: 29-Apr-20 05:54 PM
Arrived: 29-Apr-20 06:31 PM
Distance/Time
Traveled:
181nm/0:37
Distance/Time
To Go:
Arrived

Flight Plot

Page will automatically refresh every two minutes.

Flight plan parsing failed; only flown route is shown


Map Options




Map Legend


Flown Route
Filed Route
Departure Airport
Arrival Airport
Navaid (VOR, NDB)
Fix

Horizontal Profiles

Position Reports

Time Latitude Longitude Heading Altitude Ground
Speed
29-Apr-20 17:34 33.941883 -118.399094 263 122ft 0kts
29-Apr-20 17:35 33.941883 -118.399094 263 122ft 0kts
29-Apr-20 17:36 33.941883 -118.399094 263 122ft 0kts
29-Apr-20 17:37 33.941883 -118.399094 263 122ft 0kts
29-Apr-20 17:38 33.941883 -118.399094 263 122ft 0kts
29-Apr-20 17:39 33.941883 -118.399094 263 122ft 0kts
29-Apr-20 17:40 33.941883 -118.399094 263 122ft 0kts
29-Apr-20 17:41 33.941883 -118.399094 263 122ft 0kts
29-Apr-20 17:42 33.941883 -118.399094 263 122ft 0kts
29-Apr-20 17:43 33.941883 -118.399094 263 122ft 0kts
29-Apr-20 17:43 33.941883 -118.399093 263 122ft 0kts
29-Apr-20 17:44 33.942020 -118.398627 224 121ft 2kts
29-Apr-20 17:46 33.942454 -118.398464 172 121ft 0kts
29-Apr-20 17:46 33.942453 -118.398464 172 121ft 0kts
29-Apr-20 17:47 33.941501 -118.398310 173 121ft 11kts
29-Apr-20 17:49 33.939567 -118.398104 166 119ft 12kts
29-Apr-20 17:49 33.939383 -118.394101 83 113ft 24kts
29-Apr-20 17:50 33.940232 -118.385648 82 107ft 28kts
29-Apr-20 17:51 33.940733 -118.380348 107 104ft 6kts
29-Apr-20 17:52 33.939691 -118.380876 281 104ft 11kts
29-Apr-20 17:53 33.935631 -118.420088 262 709ft 210kts
29-Apr-20 17:54 33.928953 -118.499816 264 3470ft 273kts
29-Apr-20 17:55 33.936882 -118.585485 305 7242ft 265kts
29-Apr-20 17:56 33.982785 -118.661062 310 10033ft 293kts
29-Apr-20 17:57 34.059337 -118.676218 5 12892ft 312kts
29-Apr-20 17:58 34.142203 -118.657128 11 13850ft 371kts
29-Apr-20 17:59 34.247976 -118.634657 356 15539ft 397kts
29-Apr-20 18:00 34.358086 -118.658423 347 17478ft 409kts
29-Apr-20 18:01 34.471695 -118.682913 348 19281ft 420kts
29-Apr-20 18:02 34.588639 -118.705754 348 20925ft 430kts
29-Apr-20 18:03 34.707724 -118.729763 342 22375ft 439kts
29-Apr-20 18:04 34.815838 -118.797321 326 23783ft 441kts
29-Apr-20 18:05 34.923228 -118.871247 326 25113ft 447kts
29-Apr-20 18:06 35.030801 -118.945436 325 26050ft 443kts
29-Apr-20 18:07 35.138217 -119.019742 324 25980ft 447kts
29-Apr-20 18:08 35.246593 -119.094934 324 25977ft 447kts
29-Apr-20 18:09 35.354592 -119.170105 324 25969ft 447kts
29-Apr-20 18:10 35.471238 -119.219871 4 25985ft 478kts
29-Apr-20 18:11 35.597891 -119.166347 18 25959ft 476kts
29-Apr-20 18:12 35.713018 -119.113401 17 24722ft 411kts
29-Apr-20 18:13 35.816725 -119.065494 18 22203ft 388kts
29-Apr-20 18:14 35.916354 -119.026283 351 19557ft 363kts
29-Apr-20 18:15 36.006981 -119.065254 334 16942ft 340kts
29-Apr-20 18:16 36.093344 -119.106519 335 14402ft 327kts
29-Apr-20 18:17 36.176632 -119.146293 336 12082ft 317kts
29-Apr-20 18:18 36.255799 -119.187919 324 10704ft 303kts
29-Apr-20 18:19 36.324639 -119.244142 323 9105ft 292kts
29-Apr-20 18:20 36.391374 -119.298304 323 7446ft 279kts
29-Apr-20 18:21 36.454524 -119.349523 324 5650ft 261kts
29-Apr-20 18:22 36.513227 -119.397187 324 4047ft 237kts
29-Apr-20 18:23 36.566380 -119.440439 324 3482ft 224kts
29-Apr-20 18:24 36.618149 -119.482722 324 2858ft 221kts
29-Apr-20 18:25 36.668182 -119.526432 307 2685ft 210kts
29-Apr-20 18:26 36.698164 -119.577740 304 2399ft 151kts
29-Apr-20 18:27 36.721065 -119.619473 304 1898ft 143kts
29-Apr-20 18:28 36.743270 -119.658747 304 1255ft 137kts
29-Apr-20 18:29 36.765512 -119.697791 305 515ft 137kts
29-Apr-20 18:30 36.778928 -119.721202 304 337ft 38kts
29-Apr-20 18:31 36.779310 -119.724408 212 337ft 13kts
29-Apr-20 18:32 36.776292 -119.724809 125 334ft 10kts
29-Apr-20 18:33 36.774718 -119.722043 124 334ft 9kts
29-Apr-20 18:34 36.773167 -119.719315 130 334ft 8kts
29-Apr-20 18:35 36.771969 -119.719237 128 331ft 3kts

Navigation Log

Ident Type
Flight plan parsing failed, navigation log unavailable